Time;durP1;ratioP1;P1;durP2;ratioP2;P2;SDS_P1;SDS_P2;PMS_P1;PMS_P2;Temp;Humidity;BMP_temperature;BMP_pressure;BME280_temperature;BME280_humidity;BME280_pressure;Samples;Min_cycle;Max_cycle;Signal;HPM_P1;HPM_P2
2023/01/06 00:00:31;;;;;;;6.50;1.98;;;18.40;99.90;;;;;;5035616;28;20292;-83
2023/01/06 00:03:02;;;;;;;10.80;2.78;;;18.50;99.90;;;;;;5036425;28;20602;-84
2023/01/06 00:05:33;;;;;;;9.85;2.72;;;18.70;99.90;;;;;;5025256;28;20200;-83
2023/01/06 00:08:05;;;;;;;12.07;2.33;;;18.80;99.90;;;;;;5027374;28;20204;-83
2023/01/06 00:10:41;;;;;;;15.43;2.60;;;19.00;99.90;;;;;;5027775;28;20201;-85
2023/01/06 00:13:12;;;;;;;21.20;3.33;;;19.30;99.90;;;;;;5027196;28;20200;-84
2023/01/06 00:15:43;;;;;;;17.58;3.47;;;19.60;99.90;;;;;;5028640;28;20282;-83
2023/01/06 00:18:14;;;;;;;19.42;3.65;;;19.80;99.90;;;;;;5029727;28;20244;-83
2023/01/06 00:20:45;;;;;;;20.42;3.42;;;19.90;99.90;;;;;;5037049;28;20299;-85
2023/01/06 00:23:16;;;;;;;24.13;3.45;;;20.10;99.90;;;;;;5043509;28;20572;-85
2023/01/06 00:25:54;;;;;;;16.58;2.92;;;20.20;99.90;;;;;;5033042;28;20740;-92
2023/01/06 00:28:25;;;;;;;14.38;3.00;;;20.30;99.90;;;;;;5027165;28;20196;-85
2023/01/06 00:30:57;;;;;;;14.93;2.90;;;20.40;99.90;;;;;;5027555;28;20208;-85
2023/01/06 00:33:28;;;;;;;13.60;2.45;;;20.50;99.90;;;;;;5028284;28;20208;-85
2023/01/06 00:36:05;;;;;;;17.30;2.50;;;20.50;99.90;;;;;;5027367;28;20644;-84
2023/01/06 00:38:37;;;;;;;12.32;2.40;;;20.50;99.90;;;;;;5027644;28;20224;-84
2023/01/06 00:43:54;;;;;;;13.30;2.65;;;20.70;99.90;;;;;;5026762;28;20232;-85
2023/01/06 00:46:27;;;;;;;14.90;2.50;;;20.60;99.90;;;;;;5029767;28;20193;-84
2023/01/06 00:48:58;;;;;;;10.30;2.35;;;20.60;99.90;;;;;;5026735;28;20766;-84
2023/01/06 00:51:29;;;;;;;16.05;3.25;;;20.60;99.90;;;;;;5027303;28;22625;-85
2023/01/06 00:54:01;;;;;;;18.63;3.38;;;20.50;99.90;;;;;;5027204;28;20219;-84
2023/01/06 00:56:37;;;;;;;17.98;3.13;;;20.60;99.90;;;;;;5026754;28;20844;-86
2023/01/06 00:59:11;;;;;;;16.48;3.22;;;20.60;99.90;;;;;;5027005;28;20231;-85
2023/01/06 01:01:42;;;;;;;17.00;2.92;;;20.70;99.90;;;;;;5027999;28;20226;-86
2023/01/06 01:04:13;;;;;;;17.08;3.53;;;20.70;99.90;;;;;;5026976;28;20205;-85
2023/01/06 01:06:45;;;;;;;15.23;2.67;;;20.90;99.90;;;;;;5028164;28;20231;-85
2023/01/06 01:09:20;;;;;;;17.67;2.97;;;21.00;99.90;;;;;;5029828;28;20205;-86
2023/01/06 01:12:13;;;;;;;15.73;2.83;;;21.00;99.90;;;;;;5028661;28;20208;-87
2023/01/06 01:14:46;;;;;;;13.05;2.60;;;21.10;99.90;;;;;;5028365;28;20885;-86
2023/01/06 01:17:18;;;;;;;13.43;2.78;;;20.90;99.90;;;;;;5032787;28;20262;-86
2023/01/06 01:19:49;;;;;;;14.68;2.80;;;21.00;99.90;;;;;;5028923;28;20314;-86
2023/01/06 01:22:21;;;;;;;17.90;2.95;;;20.90;99.90;;;;;;5029886;28;20197;-86
2023/01/06 01:24:54;;;;;;;13.43;3.30;;;20.90;99.90;;;;;;5066586;22;20260;-95
2023/01/06 01:27:31;;;;;;;17.25;3.38;;;20.90;99.90;;;;;;5038513;28;20330;-94
2023/01/06 01:30:03;;;;;;;13.55;3.05;;;21.00;99.90;;;;;;5051859;28;20200;-94
2023/01/06 01:32:34;;;;;;;16.55;3.03;;;21.00;99.90;;;;;;5036665;28;20266;-96
2023/01/06 01:35:11;;;;;;;13.10;2.50;;;20.90;99.90;;;;;;5033976;28;20890;-95
2023/01/06 01:37:46;;;;;;;13.55;2.50;;;20.90;99.90;;;;;;5037298;28;20205;-95
2023/01/06 01:40:18;;;;;;;9.90;2.20;;;20.90;99.90;;;;;;5037948;28;20304;-95
2023/01/06 01:42:52;;;;;;;10.40;2.50;;;20.90;99.90;;;;;;5042573;28;20221;-95
2023/01/06 01:45:29;;;;;;;12.70;2.72;;;20.90;99.90;;;;;;5036755;28;20203;-95
2023/01/06 01:48:04;;;;;;;16.73;2.88;;;20.90;99.90;;;;;;5034716;28;22062;-95
2023/01/06 01:50:39;;;;;;;15.18;2.78;;;21.00;99.90;;;;;;5034739;28;20872;-94
2023/01/06 01:53:17;;;;;;;15.20;3.03;;;20.90;99.90;;;;;;5040783;28;20739;-93
2023/01/06 01:55:54;;;;;;;11.90;3.10;;;20.80;99.90;;;;;;5036332;28;20299;-93
2023/01/06 01:58:33;;;;;;;14.13;3.10;;;20.60;99.90;;;;;;5032394;28;20226;-93
2023/01/06 02:01:06;;;;;;;15.13;3.83;;;20.50;99.90;;;;;;5031718;28;20228;-93
2023/01/06 02:03:38;;;;;;;18.58;4.03;;;20.20;99.90;;;;;;5017458;28;20204;-94
2023/01/06 02:06:15;;;;;;;19.52;4.72;;;20.00;99.90;;;;;;5028882;28;20343;-94
2023/01/06 02:08:54;;;;;;;21.52;4.38;;;20.00;99.90;;;;;;5031773;28;20550;-94
2023/01/06 02:11:31;;;;;;;17.27;3.88;;;20.00;99.90;;;;;;5031034;28;20204;-94
2023/01/06 02:14:13;;;;;;;22.77;4.20;;;20.10;99.90;;;;;;5032538;28;20933;-94
2023/01/06 02:17:06;;;;;;;20.33;3.40;;;20.10;99.90;;;;;;5031718;28;20252;-93
2023/01/06 02:20:27;;;;;;;15.10;3.17;;;20.20;99.90;;;;;;5031429;28;20224;-93
2023/01/06 02:23:27;;;;;;;20.15;3.30;;;20.30;99.90;;;;;;4969794;28;20405;-92
2023/01/06 02:26:40;;;;;;;16.65;3.38;;;20.30;99.90;;;;;;4973469;28;20234;-92
2023/01/06 02:29:41;;;;;;;20.38;3.25;;;20.30;99.90;;;;;;5029035;28;20722;-93
2023/01/06 02:32:26;;;;;;;17.65;3.20;;;20.30;99.90;;;;;;5034675;28;20753;-95
2023/01/06 02:35:18;;;;;;;15.88;3.00;;;20.30;99.90;;;;;;5032086;28;20214;-93
2023/01/06 02:38:02;;;;;;;14.75;3.10;;;20.30;99.90;;;;;;5030271;28;21507;-95
2023/01/06 02:40:45;;;;;;;18.70;3.75;;;20.30;99.90;;;;;;5033855;28;20628;-95
2023/01/06 02:43:26;;;;;;;9.85;2.75;;;20.30;99.90;;;;;;5033074;28;20223;-94
2023/01/06 02:46:05;;;;;;;15.80;2.95;;;20.30;99.90;;;;;;5042026;28;20216;-96
2023/01/06 02:48:46;;;;;;;14.93;3.40;;;20.30;99.90;;;;;;5031792;28;20687;-92
2023/01/06 02:51:25;;;;;;;17.20;3.72;;;20.30;99.90;;;;;;5035507;28;20204;-93
2023/01/06 02:54:09;;;;;;;14.48;3.05;;;20.30;99.90;;;;;;5033047;28;20297;-94
2023/01/06 02:56:45;;;;;;;15.35;3.10;;;20.30;99.90;;;;;;5032488;28;20659;-95
2023/01/06 02:59:24;;;;;;;18.20;3.38;;;20.30;99.90;;;;;;5034386;28;20282;-94
2023/01/06 03:01:58;;;;;;;13.82;3.30;;;20.50;99.90;;;;;;5038972;28;20200;-94
2023/01/06 03:04:37;;;;;;;12.52;2.83;;;20.60;99.90;;;;;;5037664;28;20259;-93
2023/01/06 03:07:17;;;;;;;8.65;2.00;;;20.70;99.90;;;;;;5041507;28;20346;-94
2023/01/06 03:09:51;;;;;;;11.23;2.28;;;20.80;99.90;;;;;;5036372;28;20203;-94
2023/01/06 03:12:34;;;;;;;10.93;2.35;;;20.80;99.90;;;;;;5036866;28;20204;-94
2023/01/06 03:15:05;;;;;;;14.25;3.00;;;20.60;99.90;;;;;;5035466;28;20303;-93
2023/01/06 03:17:37;;;;;;;17.33;3.75;;;20.50;99.90;;;;;;5034897;28;20248;-94
2023/01/06 03:20:12;;;;;;;16.17;3.47;;;20.40;99.90;;;;;;5034689;28;20305;-93
2023/01/06 03:22:44;;;;;;;13.48;3.35;;;20.30;99.90;;;;;;5037970;28;20196;-96
2023/01/06 03:25:17;;;;;;;16.83;4.22;;;20.20;99.90;;;;;;5046706;28;20298;-94
2023/01/06 03:27:49;;;;;;;17.30;3.30;;;20.10;99.90;;;;;;5038733;28;20212;-94
2023/01/06 03:30:22;;;;;;;18.15;3.25;;;20.10;99.90;;;;;;5034736;28;20212;-94
2023/01/06 03:33:02;;;;;;;15.48;3.60;;;20.10;99.90;;;;;;5035534;28;20291;-94
2023/01/06 03:35:50;;;;;;;15.70;3.55;;;20.10;99.90;;;;;;5036204;28;20220;-95
2023/01/06 03:38:32;;;;;;;13.57;3.25;;;20.10;99.90;;;;;;5035490;28;20220;-94
2023/01/06 03:41:13;;;;;;;12.20;2.72;;;20.10;99.90;;;;;;5036487;28;20234;-94
2023/01/06 03:43:51;;;;;;;15.38;3.80;;;20.00;99.90;;;;;;5039174;28;21141;-95
2023/01/06 03:46:32;;;;;;;12.25;3.13;;;20.00;99.90;;;;;;5039769;28;20282;-94
2023/01/06 03:49:11;;;;;;;15.60;3.17;;;19.80;99.90;;;;;;5036086;28;20302;-94
2023/01/06 03:51:51;;;;;;;13.60;3.35;;;19.80;99.90;;;;;;5043437;28;20204;-93
2023/01/06 03:54:34;;;;;;;18.17;3.10;;;19.80;99.90;;;;;;5046384;28;20193;-92
2023/01/06 03:57:10;;;;;;;12.45;3.00;;;19.90;99.90;;;;;;5055245;28;20220;-93
2023/01/06 03:59:46;;;;;;;18.35;3.58;;;19.90;99.90;;;;;;5038020;28;20220;-95
2023/01/06 04:02:18;;;;;;;19.83;4.05;;;20.00;99.90;;;;;;5037266;28;20287;-95
2023/01/06 04:05:10;;;;;;;20.77;3.88;;;20.00;99.90;;;;;;5034882;28;20937;-94
2023/01/06 04:07:48;;;;;;;15.55;3.28;;;20.10;99.90;;;;;;5039054;28;20586;-94
2023/01/06 04:10:22;;;;;;;16.23;3.50;;;20.10;99.90;;;;;;5044371;28;20196;-95
2023/01/06 04:12:52;;;;;;;12.85;3.08;;;20.20;99.90;;;;;;5040435;28;20239;-95
2023/01/06 04:15:25;;;;;;;16.38;3.58;;;20.30;99.90;;;;;;5034312;28;20250;-96
2023/01/06 04:17:56;;;;;;;16.98;3.10;;;20.40;99.90;;;;;;5036966;28;20224;-94
2023/01/06 04:20:38;;;;;;;13.95;2.72;;;20.30;99.90;;;;;;5042734;28;20232;-93
2023/01/06 04:23:13;;;;;;;16.92;3.55;;;20.30;99.90;;;;;;5050195;28;20295;-95
2023/01/06 04:25:45;;;;;;;15.43;2.95;;;20.20;99.90;;;;;;5034030;22;20788;-84
2023/01/06 04:28:16;;;;;;;14.98;2.83;;;20.30;99.90;;;;;;4968799;28;20903;-85
2023/01/06 04:30:47;;;;;;;10.50;2.75;;;20.40;99.90;;;;;;4968126;28;20426;-83
2023/01/06 04:33:18;;;;;;;15.07;3.08;;;20.30;99.90;;;;;;4968535;28;20209;-84
2023/01/06 04:35:48;;;;;;;13.00;3.03;;;20.50;99.90;;;;;;4968578;28;20213;-84
2023/01/06 04:38:21;;;;;;;13.25;3.17;;;20.70;99.90;;;;;;4969202;28;20264;-84
2023/01/06 04:40:52;;;;;;;20.38;3.63;;;20.70;99.90;;;;;;4981917;28;20228;-84
2023/01/06 04:43:23;;;;;;;13.45;2.92;;;20.80;99.90;;;;;;4980619;28;20205;-83
2023/01/06 04:45:53;;;;;;;16.77;3.38;;;20.70;99.90;;;;;;4977118;28;20291;-84
2023/01/06 04:48:24;;;;;;;10.82;3.03;;;20.60;99.90;;;;;;4974536;28;20203;-85
2023/01/06 04:51:06;;;;;;;22.88;4.03;;;20.60;99.90;;;;;;4993004;28;20209;-85
2023/01/06 04:53:42;;;;;;;18.23;3.58;;;20.60;99.90;;;;;;4993229;28;20290;-83
2023/01/06 04:56:14;;;;;;;17.48;3.30;;;20.50;99.90;;;;;;4991524;28;20277;-84
2023/01/06 04:58:45;;;;;;;19.23;4.15;;;20.50;99.90;;;;;;4988637;28;20407;-84
2023/01/06 05:01:17;;;;;;;12.63;2.92;;;20.60;99.90;;;;;;4968437;28;20234;-83
2023/01/06 05:03:51;;;;;;;11.82;2.65;;;20.50;99.90;;;;;;4970769;28;20206;-84
2023/01/06 05:06:28;;;;;;;11.57;2.72;;;20.50;99.90;;;;;;4964439;28;20206;-83
2023/01/06 05:09:03;;;;;;;12.70;2.55;;;20.50;99.90;;;;;;4967261;28;20245;-84
2023/01/06 05:11:34;;;;;;;12.60;2.80;;;20.50;99.90;;;;;;4966564;28;20313;-83
2023/01/06 05:14:05;;;;;;;14.35;2.60;;;20.40;99.90;;;;;;4971423;28;20692;-83
2023/01/06 05:16:40;;;;;;;11.27;2.60;;;20.40;99.90;;;;;;4967313;28;20206;-84
2023/01/06 05:19:11;;;;;;;16.70;2.75;;;20.50;99.90;;;;;;4967292;28;20207;-83
2023/01/06 05:21:42;;;;;;;14.35;2.88;;;20.50;99.90;;;;;;4967033;28;20289;-83
2023/01/06 05:24:15;;;;;;;18.05;3.28;;;20.50;99.90;;;;;;4967756;28;20575;-83
2023/01/06 05:26:47;;;;;;;18.17;3.42;;;20.50;99.90;;;;;;4965996;28;20242;-84
2023/01/06 05:29:19;;;;;;;20.38;3.83;;;20.40;99.90;;;;;;4968085;28;20217;-84
2023/01/06 05:31:50;;;;;;;19.17;4.28;;;20.40;99.90;;;;;;4968490;28;20213;-84
2023/01/06 05:34:24;;;;;;;21.05;4.35;;;20.40;99.90;;;;;;4969362;28;20285;-84
2023/01/06 05:36:54;;;;;;;23.48;4.47;;;20.40;99.90;;;;;;4966385;28;20201;-83
2023/01/06 05:39:28;;;;;;;17.58;3.90;;;20.40;99.90;;;;;;4969441;28;20210;-85
2023/01/06 05:41:59;;;;;;;14.50;3.20;;;20.40;99.90;;;;;;4969124;28;20329;-84
2023/01/06 05:44:30;;;;;;;12.98;2.75;;;20.30;99.90;;;;;;4978318;28;20226;-83
2023/01/06 05:47:01;;;;;;;10.00;2.38;;;20.30;99.90;;;;;;4975840;28;20226;-84
2023/01/06 05:49:33;;;;;;;10.52;1.88;;;20.20;99.90;;;;;;4966839;28;20284;-83
2023/01/06 05:52:04;;;;;;;9.18;2.22;;;20.10;99.90;;;;;;4966419;28;20200;-83
2023/01/06 05:54:36;;;;;;;9.95;2.30;;;20.10;99.90;;;;;;4970061;28;20198;-84
2023/01/06 05:57:10;;;;;;;7.25;2.17;;;20.20;99.90;;;;;;4967112;28;20198;-84
2023/01/06 05:59:41;;;;;;;13.57;2.50;;;20.30;99.90;;;;;;4966288;28;20567;-84
2023/01/06 06:02:12;;;;;;;11.45;2.30;;;20.40;99.90;;;;;;4964436;28;20229;-84
2023/01/06 06:04:42;;;;;;;9.18;2.08;;;20.40;99.90;;;;;;4965605;28;20209;-82
2023/01/06 06:07:13;;;;;;;9.10;2.08;;;20.30;99.90;;;;;;4965338;28;20752;-82
2023/01/06 06:09:47;;;;;;;12.68;3.03;;;20.30;99.90;;;;;;4965475;28;20206;-81
2023/01/06 06:12:18;;;;;;;10.75;2.58;;;20.40;99.90;;;;;;4968124;28;20205;-82
2023/01/06 06:14:49;;;;;;;13.90;2.88;;;20.30;99.90;;;;;;4970952;28;20202;-82
2023/01/06 06:17:20;;;;;;;13.13;2.60;;;20.20;99.90;;;;;;4965524;28;20573;-84
2023/01/06 06:19:51;;;;;;;10.43;2.50;;;20.10;99.90;;;;;;4964955;28;20572;-84
2023/01/06 06:22:22;;;;;;;15.23;2.83;;;20.10;99.90;;;;;;4967271;28;21726;-83
2023/01/06 06:24:56;;;;;;;12.98;2.92;;;20.00;99.90;;;;;;4965592;28;20202;-83
2023/01/06 06:27:27;;;;;;;10.52;2.30;;;20.00;99.90;;;;;;4965919;28;20232;-84
2023/01/06 06:29:57;;;;;;;8.30;2.05;;;20.10;99.90;;;;;;4965912;28;20252;-83
2023/01/06 06:32:31;;;;;;;10.38;2.75;;;20.10;99.90;;;;;;4967418;28;20816;-85
2023/01/06 06:35:02;;;;;;;12.88;2.90;;;20.00;99.90;;;;;;4973160;28;20202;-84
2023/01/06 06:37:33;;;;;;;12.65;2.75;;;20.00;99.90;;;;;;4969932;28;20206;-84
2023/01/06 06:40:06;;;;;;;18.15;3.30;;;20.00;99.90;;;;;;4971286;28;20225;-83
2023/01/06 06:42:37;;;;;;;14.23;3.00;;;19.90;99.90;;;;;;4970831;28;22387;-84
2023/01/06 06:45:09;;;;;;;11.68;2.45;;;19.90;99.90;;;;;;4974645;28;20211;-85
2023/01/06 06:47:39;;;;;;;9.30;2.05;;;19.80;99.90;;;;;;4976389;28;20214;-84
2023/01/06 06:50:13;;;;;;;9.30;2.53;;;19.60;99.90;;;;;;4985378;28;20207;-84
2023/01/06 06:52:44;;;;;;;9.35;2.63;;;19.50;99.90;;;;;;4987069;28;20813;-83
2023/01/06 06:55:18;;;;;;;9.55;1.85;;;19.50;99.90;;;;;;4972684;28;20813;-83
2023/01/06 06:57:49;;;;;;;18.38;4.05;;;19.40;99.90;;;;;;4969107;28;20206;-84
2023/01/06 07:00:20;;;;;;;16.15;4.70;;;19.30;99.90;;;;;;4969690;28;20316;-81
2023/01/06 07:02:54;;;;;;;11.38;3.42;;;19.20;99.90;;;;;;4969721;28;20420;-82
2023/01/06 07:05:25;;;;;;;8.95;2.42;;;19.20;99.90;;;;;;4969675;28;20289;-83
2023/01/06 07:07:56;;;;;;;9.95;2.83;;;19.10;99.90;;;;;;4973373;28;20203;-83
2023/01/06 07:10:29;;;;;;;9.85;2.70;;;19.10;99.90;;;;;;4973971;28;20210;-84
2023/01/06 07:12:59;;;;;;;11.13;2.80;;;19.10;99.90;;;;;;4975004;28;20598;-84
2023/01/06 07:15:30;;;;;;;11.43;3.20;;;19.20;99.90;;;;;;4975279;28;20207;-84
2023/01/06 07:18:04;;;;;;;10.75;2.30;;;19.10;99.90;;;;;;4974133;28;20767;-83
2023/01/06 07:20:36;;;;;;;9.77;2.70;;;19.10;99.90;;;;;;4974911;28;20229;-84
2023/01/06 07:23:10;;;;;;;13.23;2.97;;;19.00;99.90;;;;;;4974500;28;20199;-84
2023/01/06 07:25:43;;;;;;;11.65;2.70;;;18.90;99.90;;;;;;4973204;28;20234;-82
2023/01/06 07:28:14;;;;;;;10.32;2.40;;;18.80;99.90;;;;;;4973887;28;20206;-83
2023/01/06 07:30:45;;;;;;;11.95;3.20;;;18.80;99.90;;;;;;4978064;28;20199;-83
2023/01/06 07:33:15;;;;;;;11.05;3.85;;;18.80;99.90;;;;;;4971198;28;20421;-85
2023/01/06 07:35:52;;;;;;;7.55;2.88;;;18.60;99.90;;;;;;4968826;28;20217;-84
2023/01/06 07:38:23;;;;;;;13.50;4.15;;;18.70;99.90;;;;;;4972101;28;20654;-84
2023/01/06 07:40:59;;;;;;;10.90;3.42;;;18.60;99.90;;;;;;4969692;28;20222;-84
2023/01/06 07:43:30;;;;;;;11.38;3.47;;;18.60;99.90;;;;;;4968175;28;20296;-83
2023/01/06 07:46:01;;;;;;;14.20;3.90;;;18.60;99.90;;;;;;4967015;28;20677;-84
2023/01/06 07:48:32;;;;;;;12.43;3.50;;;18.60;99.90;;;;;;4967478;28;20808;-84
2023/01/06 07:51:03;;;;;;;15.98;5.18;;;18.60;99.90;;;;;;4972578;28;20585;-83
2023/01/06 07:53:34;;;;;;;17.05;7.03;;;18.60;99.90;;;;;;4969065;28;20206;-84
2023/01/06 07:56:07;;;;;;;14.07;4.22;;;18.50;99.90;;;;;;4980076;28;20225;-84
2023/01/06 07:58:38;;;;;;;14.82;4.97;;;18.50;99.90;;;;;;4979595;28;20207;-84
2023/01/06 08:01:10;;;;;;;12.68;3.70;;;18.50;99.90;;;;;;4969472;28;20235;-84
2023/01/06 08:03:42;;;;;;;18.65;3.90;;;18.50;99.90;;;;;;4967540;28;20202;-84
2023/01/06 08:06:13;;;;;;;11.27;3.15;;;18.60;99.90;;;;;;4968987;28;20280;-84
2023/01/06 08:08:46;;;;;;;13.05;4.05;;;18.60;99.90;;;;;;4966932;28;20202;-84
2023/01/06 08:11:18;;;;;;;14.20;3.92;;;18.70;99.90;;;;;;4966348;28;20199;-83
2023/01/06 08:13:49;;;;;;;11.27;2.88;;;18.80;99.90;;;;;;4969163;28;20670;-83
2023/01/06 08:16:20;;;;;;;14.57;3.05;;;18.80;99.90;;;;;;4967569;28;20280;-84
2023/01/06 08:18:51;;;;;;;15.68;3.17;;;18.80;99.90;;;;;;4967775;28;20199;-83
2023/01/06 08:21:22;;;;;;;16.60;4.82;;;18.80;99.90;;;;;;4969204;28;20241;-84
2023/01/06 08:23:55;;;;;;;13.90;3.80;;;18.80;99.90;;;;;;4966914;28;20202;-84
2023/01/06 08:26:28;;;;;;;13.50;3.20;;;18.70;99.90;;;;;;4966537;28;20843;-83
2023/01/06 08:28:59;;;;;;;13.95;3.22;;;18.70;99.90;;;;;;4967359;28;20482;-82
2023/01/06 08:31:30;;;;;;;15.07;3.63;;;18.70;99.90;;;;;;4968139;28;20289;-83
2023/01/06 08:34:01;;;;;;;14.95;3.58;;;18.80;99.90;;;;;;4964409;28;20203;-84
2023/01/06 08:36:31;;;;;;;14.38;3.42;;;18.90;99.90;;;;;;4966714;28;20202;-83
2023/01/06 08:39:02;;;;;;;14.27;3.47;;;18.90;99.90;;;;;;4967313;28;20202;-83
2023/01/06 08:41:35;;;;;;;16.90;3.35;;;18.90;99.90;;;;;;4967289;28;20222;-83
2023/01/06 08:44:06;;;;;;;19.75;4.10;;;18.90;99.90;;;;;;4967314;28;20192;-82
2023/01/06 08:46:37;;;;;;;15.38;3.70;;;19.00;99.90;;;;;;4970206;28;20199;-82
2023/01/06 08:49:08;;;;;;;20.05;3.50;;;19.00;99.90;;;;;;4970883;28;20203;-83
2023/01/06 08:51:39;;;;;;;16.95;3.58;;;19.00;99.90;;;;;;4967073;28;20206;-82
2023/01/06 08:54:10;;;;;;;19.35;4.45;;;19.00;99.90;;;;;;4968384;28;20923;-83
2023/01/06 08:56:43;;;;;;;12.98;3.42;;;18.90;99.90;;;;;;4967451;28;20213;-83
2023/01/06 08:59:17;;;;;;;13.57;3.38;;;19.00;99.90;;;;;;4970398;28;20230;-83
2023/01/06 09:01:48;;;;;;;17.20;3.60;;;19.00;99.90;;;;;;4985883;28;20219;-83
2023/01/06 09:04:19;;;;;;;15.07;3.13;;;19.00;99.90;;;;;;4968026;28;20710;-83
2023/01/06 09:06:50;;;;;;;17.10;3.03;;;19.00;99.90;;;;;;4968642;28;20229;-83
2023/01/06 09:09:20;;;;;;;12.38;3.17;;;18.90;99.90;;;;;;4967637;28;20202;-82
2023/01/06 09:11:53;;;;;;;14.55;2.85;;;18.90;99.90;;;;;;4966726;28;20203;-82
2023/01/06 09:14:24;;;;;;;10.88;2.85;;;18.90;99.90;;;;;;4968521;28;20211;-83
2023/01/06 09:16:55;;;;;;;15.23;3.55;;;19.00;99.90;;;;;;4965840;28;20384;-83
2023/01/06 09:19:26;;;;;;;17.52;3.28;;;19.00;99.90;;;;;;4965479;28;20235;-83
2023/01/06 09:21:57;;;;;;;17.33;3.30;;;19.00;99.90;;;;;;4966694;28;20322;-84
2023/01/06 09:24:29;;;;;;;16.25;3.78;;;18.90;99.90;;;;;;4965972;28;20243;-83
2023/01/06 09:27:02;;;;;;;17.30;4.18;;;18.90;99.90;;;;;;4965256;28;20273;-85
2023/01/06 09:29:35;;;;;;;16.08;3.55;;;18.90;99.90;;;;;;4967342;28;20641;-85
2023/01/06 09:32:06;;;;;;;13.75;3.90;;;18.90;99.90;;;;;;4967475;28;20201;-85
2023/01/06 09:34:37;;;;;;;11.07;3.13;;;18.90;99.90;;;;;;4967035;28;20203;-83
2023/01/06 09:37:08;;;;;;;15.50;3.53;;;19.00;99.90;;;;;;4976945;28;20226;-86
2023/01/06 09:39:39;;;;;;;16.30;4.15;;;19.00;99.90;;;;;;4970202;28;20207;-83
2023/01/06 09:42:54;;;;;;;14.32;3.67;;;19.00;99.90;;;;;;4975314;28;20214;-83
2023/01/06 09:45:45;;;;;;;14.65;3.50;;;19.00;99.90;;;;;;4978550;28;20202;-83
2023/01/06 09:48:25;;;;;;;16.42;3.40;;;19.00;99.90;;;;;;4975378;28;20198;-84
2023/01/06 09:51:03;;;;;;;15.73;3.65;;;19.10;99.90;;;;;;4975492;28;20235;-85
2023/01/06 09:53:47;;;;;;;15.02;3.90;;;19.00;99.90;;;;;;4978098;28;20231;-85
2023/01/06 09:56:41;;;;;;;13.85;3.17;;;19.00;99.90;;;;;;4973976;28;20206;-83
2023/01/06 09:59:34;;;;;;;17.90;4.30;;;19.10;99.90;;;;;;4973924;28;20647;-85
2023/01/06 10:02:13;;;;;;;19.02;5.20;;;19.10;99.90;;;;;;4977462;28;20237;-85
2023/01/06 10:04:43;;;;;;;16.65;3.55;;;19.10;99.90;;;;;;4978745;28;20197;-82
2023/01/06 10:07:25;;;;;;;16.80;3.53;;;19.10;99.90;;;;;;4991617;28;20209;-86
2023/01/06 10:10:10;;;;;;;14.63;3.58;;;19.10;99.90;;;;;;4975632;28;20233;-82
2023/01/06 10:12:55;;;;;;;19.80;4.18;;;19.10;99.90;;;;;;4974268;28;20195;-83
2023/01/06 10:15:38;;;;;;;15.18;4.30;;;19.10;99.90;;;;;;4970067;28;20198;-84
2023/01/06 10:18:31;;;;;;;14.82;3.75;;;19.10;99.90;;;;;;4975977;28;20289;-84
2023/01/06 10:21:17;;;;;;;15.95;3.50;;;19.10;99.90;;;;;;4975661;28;20229;-83
2023/01/06 10:24:22;;;;;;;19.70;3.95;;;19.10;99.90;;;;;;4972821;28;21571;-83
2023/01/06 10:26:58;;;;;;;17.48;3.67;;;19.10;99.90;;;;;;4896640;29;20332;-83
2023/01/06 10:29:38;;;;;;;19.63;4.00;;;19.20;99.90;;;;;;4931204;28;20200;-84
2023/01/06 10:32:17;;;;;;;24.60;4.65;;;19.10;99.90;;;;;;4934699;28;20675;-84
2023/01/06 10:34:50;;;;;;;19.83;4.32;;;19.20;99.90;;;;;;4932163;28;20651;-84
2023/01/06 10:37:39;;;;;;;19.90;3.67;;;19.20;99.90;;;;;;4941480;28;20216;-84
2023/01/06 10:40:26;;;;;;;16.17;4.10;;;19.20;99.90;;;;;;4938242;28;20319;-84
2023/01/06 10:43:13;;;;;;;19.75;3.90;;;19.20;99.90;;;;;;4936825;28;20235;-82
2023/01/06 10:45:48;;;;;;;20.13;4.00;;;19.10;99.90;;;;;;4943360;28;20287;-83
2023/01/06 10:48:43;;;;;;;;;;;;;;;;;;;;;
2023/01/06 10:51:40;;;;;;;22.13;5.25;;;19.20;99.90;;;;;;4936966;28;20281;-83
2023/01/06 10:54:15;;;;;;;17.13;3.53;;;19.20;99.90;;;;;;4936684;28;20204;-82
2023/01/06 10:56:58;;;;;;;15.93;4.00;;;19.20;99.90;;;;;;4935497;28;20290;-83
2023/01/06 11:00:15;;;;;;;16.65;3.60;;;19.10;99.90;;;;;;4935909;28;20215;-83
2023/01/06 11:03:00;;;;;;;12.73;2.63;;;19.10;99.90;;;;;;4935977;28;20650;-83
2023/01/06 11:05:51;;;;;;;17.52;3.80;;;19.20;99.90;;;;;;4936547;28;20215;-83
2023/01/06 11:08:29;;;;;;;9.95;2.40;;;19.10;99.90;;;;;;4939386;28;20193;-84
2023/01/06 11:11:12;;;;;;;15.95;3.60;;;19.20;99.90;;;;;;4942805;28;20879;-83
2023/01/06 11:13:50;;;;;;;16.48;3.10;;;19.10;99.90;;;;;;4940206;28;20212;-83
2023/01/06 11:16:27;;;;;;;13.35;2.70;;;19.10;99.90;;;;;;4954466;28;20227;-82
2023/01/06 11:18:59;;;;;;;13.20;2.70;;;19.10;99.90;;;;;;4937177;28;20204;-82
2023/01/06 11:21:55;;;;;;;13.75;2.78;;;19.10;99.90;;;;;;4941656;28;20232;-83
2023/01/06 11:24:31;;;;;;;12.15;2.58;;;19.10;99.90;;;;;;4945527;28;20216;-84
2023/01/06 11:27:06;;;;;;;12.27;2.40;;;19.30;99.90;;;;;;4976101;28;20234;-83
2023/01/06 11:29:37;;;;;;;14.13;2.55;;;19.20;99.90;;;;;;4973222;28;20244;-83
2023/01/06 11:32:16;;;;;;;18.35;2.83;;;19.20;99.90;;;;;;4975325;28;20214;-83
2023/01/06 11:34:55;;;;;;;16.02;2.85;;;19.20;99.90;;;;;;4973926;28;20213;-83
2023/01/06 11:37:40;;;;;;;10.52;2.50;;;19.30;99.90;;;;;;4975415;28;20217;-84
2023/01/06 11:40:22;;;;;;;13.20;2.72;;;19.30;99.90;;;;;;4974478;28;20233;-83
2023/01/06 11:42:55;;;;;;;12.55;2.85;;;19.40;99.90;;;;;;4974922;28;20379;-84
2023/01/06 11:45:38;;;;;;;14.88;3.67;;;19.40;99.90;;;;;;4977428;28;20305;-83
2023/01/06 11:48:15;;;;;;;14.57;3.40;;;19.40;99.90;;;;;;4972737;28;20199;-84
2023/01/06 11:50:54;;;;;;;13.40;2.92;;;19.50;99.90;;;;;;4971982;28;20198;-82
2023/01/06 11:53:28;;;;;;;15.23;2.85;;;19.50;99.90;;;;;;4971789;28;20198;-83
2023/01/06 11:56:01;;;;;;;12.63;2.30;;;19.50;99.90;;;;;;4974402;28;20195;-82
2023/01/06 11:58:47;;;;;;;11.20;2.78;;;19.50;99.90;;;;;;4971210;28;20494;-82
2023/01/06 12:01:23;;;;;;;12.25;3.03;;;19.50;99.90;;;;;;4969624;28;20203;-83
2023/01/06 12:03:59;;;;;;;19.30;3.20;;;19.50;99.90;;;;;;4972440;28;20203;-85
2023/01/06 12:06:35;;;;;;;14.63;2.63;;;19.50;99.90;;;;;;4969803;28;20191;-83
2023/01/06 12:09:13;;;;;;;14.90;3.08;;;19.50;99.90;;;;;;4972622;28;20210;-84
2023/01/06 12:11:51;;;;;;;11.48;2.30;;;19.50;99.90;;;;;;4966996;28;20206;-83
2023/01/06 12:14:23;;;;;;;13.32;2.58;;;19.40;99.90;;;;;;4980936;28;20199;-84
2023/01/06 12:17:06;;;;;;;14.98;2.72;;;19.40;99.90;;;;;;4987522;28;20207;-83
2023/01/06 12:19:42;;;;;;;15.75;2.50;;;19.40;99.90;;;;;;4977160;28;20226;-83
2023/01/06 12:22:24;;;;;;;11.13;2.70;;;19.30;99.90;;;;;;4971474;28;20233;-84
2023/01/06 12:24:59;;;;;;;10.98;2.45;;;19.30;99.90;;;;;;4976214;28;20202;-83
2023/01/06 12:27:37;;;;;;;11.30;2.35;;;19.30;99.90;;;;;;4970868;28;21036;-84
2023/01/06 12:30:18;;;;;;;9.48;2.50;;;19.20;99.90;;;;;;4973344;28;20202;-82
2023/01/06 12:32:51;;;;;;;10.85;2.70;;;19.20;99.90;;;;;;4970708;28;20207;-83
2023/01/06 12:35:28;;;;;;;11.13;2.20;;;19.10;99.90;;;;;;4971207;28;20245;-83
2023/01/06 12:38:17;;;;;;;9.20;2.40;;;19.10;99.90;;;;;;4980114;28;20203;-85
2023/01/06 12:40:54;;;;;;;8.73;2.13;;;19.00;99.90;;;;;;4977799;28;20195;-84
2023/01/06 12:43:27;;;;;;;10.07;1.85;;;19.10;99.90;;;;;;4970167;28;20226;-84
2023/01/06 12:46:03;;;;;;;12.75;2.63;;;19.10;99.90;;;;;;4971838;28;20386;-84
2023/01/06 12:48:40;;;;;;;8.32;2.40;;;19.10;99.90;;;;;;4973084;28;20198;-84
2023/01/06 12:51:18;;;;;;;9.32;2.42;;;19.10;99.90;;;;;;4972375;28;20198;-82
2023/01/06 12:53:53;;;;;;;11.82;2.38;;;19.10;99.90;;;;;;4971210;28;20751;-82
2023/01/06 12:56:53;;;;;;;16.38;3.17;;;19.10;99.90;;;;;;4969153;28;20891;-83
2023/01/06 12:59:35;;;;;;;13.80;3.13;;;19.00;99.90;;;;;;4970267;28;20199;-83
2023/01/06 13:02:21;;;;;;;13.25;2.72;;;19.00;99.90;;;;;;4968762;28;20222;-84
2023/01/06 13:05:17;;;;;;;7.88;2.03;;;18.90;99.90;;;;;;4966397;28;20309;-84
2023/01/06 13:07:55;;;;;;;14.52;2.95;;;19.00;99.90;;;;;;4965232;28;21095;-83
2023/01/06 13:10:32;;;;;;;15.52;2.72;;;19.00;99.90;;;;;;4967244;28;20198;-84
2023/01/06 13:13:31;;;;;;;10.70;2.60;;;19.00;99.90;;;;;;4966994;28;20535;-82
2023/01/06 13:16:07;;;;;;;11.63;2.80;;;19.00;99.90;;;;;;4965532;28;20218;-83
2023/01/06 13:18:54;;;;;;;10.32;2.30;;;18.90;99.90;;;;;;4966780;28;20203;-83
2023/01/06 13:21:26;;;;;;;12.32;2.50;;;19.00;99.90;;;;;;4974994;28;20203;-82
2023/01/06 13:24:15;;;;;;;11.32;2.47;;;19.00;99.90;;;;;;4965990;28;20620;-83
2023/01/06 13:27:02;;;;;;;10.02;2.55;;;19.00;99.90;;;;;;4965723;28;20244;-83